Time;durP1;ratioP1;P1;durP2;ratioP2;P2;SDS_P1;SDS_P2;PMS_P1;PMS_P2;Temp;Humidity;BMP_temperature;BMP_pressure;BME280_temperature;BME280_humidity;BME280_pressure;Samples;Min_cycle;Max_cycle;Signal;HPM_P1;HPM_P2
2023/06/05 00:01:10;;;;;;;2.70;1.27;;;20.70;62.30;;;;;;5046197;28;20199;-61
2023/06/05 00:03:39;;;;;;;1.90;1.33;;;20.70;62.30;;;;;;5050040;28;20674;-61
2023/06/05 00:06:06;;;;;;;2.42;1.50;;;20.70;62.30;;;;;;5045632;28;20669;-61
2023/06/05 00:08:32;;;;;;;1.50;1.20;;;20.70;62.30;;;;;;5032646;28;20204;-61
2023/06/05 00:11:00;;;;;;;1.55;1.35;;;20.70;62.30;;;;;;5049375;28;20532;-61
2023/06/05 00:13:27;;;;;;;1.88;1.13;;;20.70;62.40;;;;;;5039022;28;20611;-61
2023/06/05 00:15:54;;;;;;;1.30;1.20;;;20.70;62.50;;;;;;5036430;28;20199;-61
2023/06/05 00:18:21;;;;;;;2.88;1.15;;;20.70;62.50;;;;;;5042754;28;22413;-61
2023/06/05 00:20:47;;;;;;;1.92;1.38;;;20.70;62.50;;;;;;5045889;28;20250;-61
2023/06/05 00:23:14;;;;;;;1.23;1.00;;;20.70;62.50;;;;;;5039353;28;20215;-61
2023/06/05 00:25:41;;;;;;;1.60;1.30;;;20.70;62.50;;;;;;5036952;28;20191;-61
2023/06/05 00:28:09;;;;;;;1.30;1.20;;;20.70;62.50;;;;;;5037108;28;20199;-61
2023/06/05 00:30:36;;;;;;;2.50;1.48;;;20.70;62.50;;;;;;5037147;28;20551;-61
2023/06/05 00:33:04;;;;;;;9.73;2.95;;;20.70;62.50;;;;;;5037969;28;20270;-61
2023/06/05 00:35:31;;;;;;;1.70;1.40;;;20.70;62.50;;;;;;5041205;28;20198;-61
2023/06/05 00:37:57;;;;;;;1.30;1.20;;;20.70;62.50;;;;;;5039907;28;20604;-61
2023/06/05 00:40:24;;;;;;;1.33;1.20;;;20.70;63.30;;;;;;5040406;28;20200;-61
2023/06/05 00:42:51;;;;;;;1.45;1.33;;;20.70;62.50;;;;;;5038191;28;20224;-62
2023/06/05 00:45:19;;;;;;;1.63;1.50;;;20.70;62.60;;;;;;5037108;28;20195;-61
2023/06/05 00:47:46;;;;;;;1.30;1.00;;;20.70;62.60;;;;;;5038003;28;20199;-61
2023/06/05 00:50:15;;;;;;;1.60;1.30;;;20.70;62.60;;;;;;5051419;28;20390;-61
2023/06/05 00:52:43;;;;;;;1.40;1.10;;;20.70;62.70;;;;;;5048237;28;20198;-61
2023/06/05 00:55:10;;;;;;;1.40;1.30;;;20.70;62.70;;;;;;5047210;28;20287;-63
2023/06/05 00:57:38;;;;;;;1.50;1.30;;;20.70;62.60;;;;;;5053835;28;20206;-61
2023/06/05 01:00:09;;;;;;;1.48;1.30;;;20.70;62.70;;;;;;5047211;28;20226;-61
2023/06/05 01:02:37;;;;;;;1.25;1.13;;;20.70;62.70;;;;;;5048591;28;20215;-61
2023/06/05 01:05:04;;;;;;;2.30;1.67;;;20.70;62.70;;;;;;5046319;28;20281;-61
2023/06/05 01:07:32;;;;;;;2.30;1.40;;;20.70;62.70;;;;;;5043952;28;20200;-61
2023/06/05 01:09:59;;;;;;;4.25;1.35;;;20.70;62.70;;;;;;5053976;28;20667;-61
2023/06/05 01:12:31;;;;;;;1.83;1.30;;;20.70;62.70;;;;;;5051101;28;20606;-61
2023/06/05 01:15:01;;;;;;;1.13;0.98;;;20.70;62.70;;;;;;5044457;28;20286;-61
2023/06/05 01:17:32;;;;;;;1.40;1.20;;;20.70;62.80;;;;;;5052976;28;20192;-61
2023/06/05 01:20:08;;;;;;;1.95;1.55;;;20.60;62.60;;;;;;5051980;28;20219;-61
2023/06/05 01:22:37;;;;;;;1.75;1.65;;;20.60;62.60;;;;;;5040934;28;20211;-61
2023/06/05 01:25:06;;;;;;;1.40;1.30;;;20.60;62.70;;;;;;5045331;28;20226;-61
2023/06/05 01:27:42;;;;;;;1.73;1.63;;;20.60;62.70;;;;;;5041595;28;20645;-61
2023/06/05 01:30:16;;;;;;;1.90;1.60;;;20.60;62.70;;;;;;5038378;28;20215;-61
2023/06/05 01:32:53;;;;;;;2.97;1.40;;;20.70;62.80;;;;;;5039453;28;20258;-61
2023/06/05 01:35:21;;;;;;;1.60;1.30;;;20.70;62.80;;;;;;5036251;28;20195;-61
2023/06/05 01:37:50;;;;;;;1.90;1.48;;;20.60;62.70;;;;;;5043314;28;20192;-61
2023/06/05 01:40:21;;;;;;;1.40;1.30;;;20.70;62.80;;;;;;5045509;28;20188;-61
2023/06/05 01:42:49;;;;;;;1.45;1.35;;;20.60;62.70;;;;;;5043699;28;20306;-61
2023/06/05 01:45:16;;;;;;;2.63;1.20;;;20.60;62.80;;;;;;5042986;28;20199;-61
2023/06/05 01:47:43;;;;;;;1.83;1.33;;;20.60;62.80;;;;;;5041929;28;20837;-61
2023/06/05 01:50:12;;;;;;;1.30;1.20;;;20.60;62.80;;;;;;5053658;28;20197;-61
2023/06/05 01:52:41;;;;;;;1.95;1.33;;;20.70;62.90;;;;;;5049735;28;20202;-61
2023/06/05 01:55:14;;;;;;;1.48;1.38;;;20.60;62.80;;;;;;5047880;28;20199;-61
2023/06/05 01:57:43;;;;;;;2.28;1.60;;;20.60;62.80;;;;;;5051114;28;20713;-61
2023/06/05 02:00:13;;;;;;;2.85;1.33;;;20.60;62.90;;;;;;5047479;28;20609;-61
2023/06/05 02:02:41;;;;;;;1.33;1.23;;;20.60;62.90;;;;;;5047422;28;20302;-61
2023/06/05 02:05:09;;;;;;;1.77;1.20;;;20.60;62.90;;;;;;5044825;28;20281;-61
2023/06/05 02:07:38;;;;;;;1.60;1.35;;;20.70;63.00;;;;;;5046239;28;20232;-61
2023/06/05 02:10:05;;;;;;;2.20;1.27;;;20.60;62.90;;;;;;5047594;28;20195;-61
2023/06/05 02:12:32;;;;;;;1.60;1.38;;;20.60;62.90;;;;;;5048516;28;20192;-61
2023/06/05 02:15:00;;;;;;;1.30;1.20;;;20.60;62.90;;;;;;5046583;28;20219;-61
2023/06/05 02:17:27;;;;;;;1.73;1.63;;;20.60;62.90;;;;;;5049631;28;20196;-61
2023/06/05 02:19:53;;;;;;;1.95;1.17;;;20.60;62.90;;;;;;5049556;28;20192;-61
2023/06/05 02:22:23;;;;;;;1.80;1.42;;;20.60;62.90;;;;;;5045312;28;20310;-61
2023/06/05 02:24:49;;;;;;;1.17;1.08;;;20.60;62.90;;;;;;5051575;28;20265;-61
2023/06/05 02:27:16;;;;;;;1.50;1.30;;;20.60;62.90;;;;;;5043533;28;20196;-61
2023/06/05 02:29:43;;;;;;;1.55;1.40;;;20.60;63.00;;;;;;5046555;28;20192;-61
2023/06/05 02:32:11;;;;;;;2.75;1.50;;;20.60;63.00;;;;;;5044858;28;20191;-61
2023/06/05 02:34:38;;;;;;;1.60;1.50;;;20.60;63.00;;;;;;5048818;28;20199;-61
2023/06/05 02:37:05;;;;;;;1.77;1.42;;;20.60;63.00;;;;;;5049128;28;20302;-61
2023/06/05 02:39:33;;;;;;;1.33;1.10;;;20.60;63.00;;;;;;5048645;28;20191;-61
2023/06/05 02:41:59;;;;;;;1.45;1.30;;;20.60;63.00;;;;;;5047038;28;20203;-61
2023/06/05 02:44:26;;;;;;;1.33;1.20;;;20.60;63.00;;;;;;5050360;28;20282;-61
2023/06/05 02:46:53;;;;;;;1.40;1.30;;;20.60;63.00;;;;;;5049859;28;20283;-61
2023/06/05 02:49:21;;;;;;;1.40;1.20;;;20.60;63.00;;;;;;5046825;28;20211;-61
2023/06/05 02:51:48;;;;;;;1.33;1.10;;;20.60;63.00;;;;;;5047044;28;20191;-61
2023/06/05 02:54:14;;;;;;;1.50;1.40;;;20.60;63.10;;;;;;5049917;28;20353;-61
2023/06/05 02:56:43;;;;;;;1.60;1.38;;;20.60;63.10;;;;;;5045117;28;20659;-61
2023/06/05 02:59:10;;;;;;;1.45;1.35;;;20.60;63.10;;;;;;5046136;28;20219;-61
2023/06/05 03:01:37;;;;;;;1.30;1.10;;;20.60;63.10;;;;;;5049971;28;20198;-61
2023/06/05 03:04:03;;;;;;;1.90;1.70;;;20.60;63.10;;;;;;5043170;28;20238;-61
2023/06/05 03:06:33;;;;;;;2.25;1.58;;;20.60;63.10;;;;;;5048229;28;20245;-61
2023/06/05 03:09:00;;;;;;;1.90;1.40;;;20.60;63.10;;;;;;5049906;28;20196;-61
2023/06/05 03:11:27;;;;;;;1.30;1.10;;;20.60;63.10;;;;;;5052885;28;20202;-61
2023/06/05 03:13:54;;;;;;;2.45;1.20;;;20.60;63.10;;;;;;5046054;28;20200;-61
2023/06/05 03:16:23;;;;;;;1.55;1.45;;;20.60;63.10;;;;;;5047850;28;20612;-61
2023/06/05 03:18:49;;;;;;;1.92;1.60;;;20.60;63.10;;;;;;5052952;28;21600;-61
2023/06/05 03:21:16;;;;;;;1.88;1.38;;;20.60;63.10;;;;;;5048107;28;20202;-61
2023/06/05 03:23:44;;;;;;;1.75;1.30;;;20.60;63.10;;;;;;5052078;28;20258;-61
2023/06/05 03:26:11;;;;;;;1.17;1.02;;;20.60;63.10;;;;;;5042529;28;20608;-61
2023/06/05 03:28:37;;;;;;;1.80;1.40;;;20.60;63.20;;;;;;5048362;28;20196;-61
2023/06/05 03:31:04;;;;;;;1.30;1.20;;;20.60;63.20;;;;;;5040979;28;20203;-61
2023/06/05 03:33:31;;;;;;;1.60;1.50;;;20.60;63.20;;;;;;5046563;28;20545;-61
2023/06/05 03:35:58;;;;;;;1.83;1.30;;;20.60;63.20;;;;;;5045179;28;20647;-61
2023/06/05 03:38:24;;;;;;;1.35;1.10;;;20.60;63.20;;;;;;5045050;28;20195;-61
2023/06/05 03:40:52;;;;;;;1.38;1.27;;;20.60;63.20;;;;;;5051314;28;20246;-61
2023/06/05 03:43:19;;;;;;;1.63;1.20;;;20.60;63.20;;;;;;5046833;28;20222;-61
2023/06/05 03:45:46;;;;;;;1.40;1.30;;;20.60;63.20;;;;;;5045010;28;20308;-61
2023/06/05 03:48:13;;;;;;;1.75;1.65;;;20.60;63.20;;;;;;5044375;28;20199;-61
2023/06/05 03:50:41;;;;;;;1.75;1.58;;;20.60;63.20;;;;;;5041236;28;20195;-61
2023/06/05 03:53:08;;;;;;;2.05;1.20;;;20.60;63.20;;;;;;5048716;28;20199;-61
2023/06/05 03:55:41;;;;;;;3.88;1.45;;;20.50;63.10;;;;;;5046519;28;20199;-61
2023/06/05 03:58:13;;;;;;;1.80;1.40;;;20.60;63.30;;;;;;5035792;28;20283;-61
2023/06/05 04:00:41;;;;;;;1.60;1.40;;;20.50;63.20;;;;;;5045266;28;20603;-61
2023/06/05 04:03:10;;;;;;;1.73;1.30;;;20.60;63.30;;;;;;5048311;28;20650;-61
2023/06/05 04:05:37;;;;;;;1.40;1.20;;;20.50;63.20;;;;;;5044517;28;20199;-61
2023/06/05 04:08:04;;;;;;;1.30;1.20;;;20.50;63.20;;;;;;5041175;28;20191;-61
2023/06/05 04:10:31;;;;;;;1.00;0.90;;;20.50;64.00;;;;;;5045195;28;20192;-61
2023/06/05 04:12:58;;;;;;;1.73;1.55;;;20.60;63.30;;;;;;5043152;28;20206;-61
2023/06/05 04:15:26;;;;;;;1.40;1.20;;;20.50;63.20;;;;;;5043675;28;20196;-61
2023/06/05 04:17:53;;;;;;;1.88;1.60;;;20.50;63.20;;;;;;5039608;28;20365;-61
2023/06/05 04:20:20;;;;;;;1.25;1.08;;;20.50;63.20;;;;;;5047024;28;20231;-61
2023/06/05 04:22:47;;;;;;;1.70;1.20;;;20.50;63.20;;;;;;5049032;28;20233;-61
2023/06/05 04:25:14;;;;;;;1.30;1.17;;;20.50;63.20;;;;;;5040844;28;20222;-61
2023/06/05 04:27:42;;;;;;;1.40;1.30;;;20.50;63.20;;;;;;5043158;28;20613;-61
2023/06/05 04:30:10;;;;;;;1.40;1.17;;;20.50;63.30;;;;;;5042015;28;20651;-61
2023/06/05 04:32:39;;;;;;;1.20;0.93;;;20.50;63.40;;;;;;5045424;28;20199;-61
2023/06/05 04:35:08;;;;;;;1.25;1.10;;;20.50;63.20;;;;;;5039538;28;20671;-61
2023/06/05 04:37:35;;;;;;;1.35;1.20;;;20.50;63.30;;;;;;5045445;28;20192;-61
2023/06/05 04:40:05;;;;;;;1.45;1.27;;;20.50;63.40;;;;;;5046297;28;20560;-60
2023/06/05 04:42:32;;;;;;;1.33;1.13;;;20.50;63.30;;;;;;5048229;28;20199;-61
2023/06/05 04:45:00;;;;;;;1.40;1.30;;;20.50;63.40;;;;;;5043361;28;20214;-61
2023/06/05 04:47:27;;;;;;;1.25;1.10;;;20.50;63.30;;;;;;5045647;28;20198;-61
2023/06/05 04:49:55;;;;;;;1.63;1.40;;;20.50;63.30;;;;;;5043168;28;20196;-61
2023/06/05 04:52:23;;;;;;;2.10;1.63;;;20.50;63.30;;;;;;5043897;28;20209;-61
2023/06/05 04:54:50;;;;;;;1.85;1.33;;;20.50;63.30;;;;;;5047061;28;20346;-61
2023/06/05 04:57:18;;;;;;;1.63;1.40;;;20.50;63.40;;;;;;5040783;28;20196;-61
2023/06/05 04:59:45;;;;;;;2.28;1.60;;;20.50;63.40;;;;;;5039868;28;20188;-60
2023/06/05 05:02:12;;;;;;;1.45;1.30;;;20.50;63.40;;;;;;5046055;28;20199;-61
2023/06/05 05:04:39;;;;;;;1.95;1.10;;;20.50;64.20;;;;;;5042758;28;20263;-61
2023/06/05 05:07:13;;;;;;;2.03;1.67;;;20.50;63.40;;;;;;5040036;28;20563;-60
2023/06/05 05:09:40;;;;;;;1.75;1.27;;;20.50;63.50;;;;;;5046323;28;20199;-60
2023/06/05 05:12:07;;;;;;;1.85;1.70;;;20.50;63.40;;;;;;5042397;28;20274;-61
2023/06/05 05:14:33;;;;;;;1.48;1.25;;;20.50;63.40;;;;;;5043274;28;20200;-61
2023/06/05 05:17:01;;;;;;;1.70;1.25;;;20.50;63.40;;;;;;5036801;28;20195;-61
2023/06/05 05:19:28;;;;;;;1.63;1.20;;;20.50;63.40;;;;;;5036800;28;20219;-61
2023/06/05 05:21:55;;;;;;;2.35;1.45;;;20.50;63.50;;;;;;5050655;28;20195;-61
2023/06/05 05:24:23;;;;;;;3.80;1.77;;;20.50;63.40;;;;;;5040330;28;20227;-60
2023/06/05 05:26:50;;;;;;;1.88;1.65;;;20.50;63.40;;;;;;5044084;28;20234;-61
2023/06/05 05:29:17;;;;;;;1.50;1.30;;;20.50;63.50;;;;;;5040165;28;20203;-61
2023/06/05 05:31:44;;;;;;;1.60;1.20;;;20.50;63.50;;;;;;5042042;28;20196;-61
2023/06/05 05:34:10;;;;;;;1.42;1.33;;;20.50;63.50;;;;;;5043469;28;20282;-60
2023/06/05 05:36:37;;;;;;;1.30;1.20;;;20.40;63.40;;;;;;5045737;28;20187;-61
2023/06/05 05:39:04;;;;;;;2.20;1.13;;;20.40;63.40;;;;;;5041703;28;20202;-60
2023/06/05 05:41:32;;;;;;;1.60;1.50;;;20.50;63.60;;;;;;5047500;28;20223;-61
2023/06/05 05:43:59;;;;;;;1.60;1.48;;;20.40;63.50;;;;;;5049337;28;20617;-61
2023/06/05 05:46:26;;;;;;;2.25;1.60;;;20.40;63.50;;;;;;5044624;28;20562;-61
2023/06/05 05:48:54;;;;;;;1.50;1.40;;;20.40;63.50;;;;;;5048504;28;20218;-61
2023/06/05 05:51:21;;;;;;;1.90;1.45;;;20.40;63.50;;;;;;5053053;28;20283;-66
2023/06/05 05:53:47;;;;;;;1.77;1.33;;;20.50;63.60;;;;;;5052905;28;20203;-62
2023/06/05 05:56:14;;;;;;;2.05;1.63;;;20.40;63.50;;;;;;5051719;28;20218;-61
2023/06/05 05:58:42;;;;;;;1.98;1.75;;;20.40;63.70;;;;;;5048387;28;20671;-61
2023/06/05 06:01:09;;;;;;;1.52;1.42;;;20.40;63.70;;;;;;5046796;28;20298;-61
2023/06/05 06:03:37;;;;;;;1.92;1.67;;;20.40;63.90;;;;;;5051174;28;20215;-61
2023/06/05 06:06:06;;;;;;;3.13;1.08;;;20.50;64.10;;;;;;5050190;28;20191;-61
2023/06/05 06:08:33;;;;;;;2.13;2.00;;;20.50;64.30;;;;;;5044252;28;20221;-61
2023/06/05 06:11:00;;;;;;;1.75;1.48;;;20.50;64.50;;;;;;5047483;28;20741;-61
2023/06/05 06:13:27;;;;;;;3.10;1.55;;;20.50;64.70;;;;;;5047323;28;20294;-61
2023/06/05 06:15:55;;;;;;;2.42;1.27;;;20.50;64.70;;;;;;5048060;28;20200;-61
2023/06/05 06:18:22;;;;;;;2.47;1.63;;;20.50;64.80;;;;;;5047292;28;20207;-61
2023/06/05 06:20:48;;;;;;;3.22;1.40;;;20.50;65.10;;;;;;5051603;28;20199;-61
2023/06/05 06:23:15;;;;;;;3.13;1.60;;;20.50;65.10;;;;;;5048616;28;20199;-62
2023/06/05 06:25:42;;;;;;;3.05;1.70;;;20.60;65.40;;;;;;5049137;28;20655;-61
2023/06/05 06:28:09;;;;;;;2.05;1.30;;;20.50;65.30;;;;;;5047981;28;20671;-61
2023/06/05 06:30:36;;;;;;;1.60;1.30;;;20.50;65.40;;;;;;5048412;28;20199;-61
2023/06/05 06:33:04;;;;;;;1.80;1.50;;;20.50;65.40;;;;;;5046225;28;20629;-61
2023/06/05 06:35:32;;;;;;;2.00;1.85;;;20.60;65.70;;;;;;5044849;28;20616;-62
2023/06/05 06:37:59;;;;;;;1.95;1.42;;;20.60;65.60;;;;;;5046714;28;20568;-61
2023/06/05 06:40:28;;;;;;;11.30;1.70;;;20.60;65.40;;;;;;5044019;28;20208;-61
2023/06/05 06:42:55;;;;;;;1.77;1.67;;;20.60;65.60;;;;;;5043796;28;20532;-61
2023/06/05 06:45:22;;;;;;;6.10;1.70;;;20.60;65.80;;;;;;5041584;28;21327;-61
2023/06/05 06:47:49;;;;;;;10.02;1.58;;;20.60;66.00;;;;;;5044997;28;20261;-61
2023/06/05 06:50:17;;;;;;;5.72;1.55;;;20.60;65.90;;;;;;5044981;28;20192;-63
2023/06/05 06:52:44;;;;;;;1.98;1.52;;;20.60;66.00;;;;;;5045830;28;20199;-60
2023/06/05 06:55:10;;;;;;;2.45;1.55;;;20.60;65.90;;;;;;5045959;28;20199;-63
2023/06/05 06:57:38;;;;;;;2.47;1.70;;;20.70;66.10;;;;;;5042878;28;20195;-62
2023/06/05 07:00:09;;;;;;;3.45;1.70;;;20.60;66.00;;;;;;5040507;28;20195;-61
2023/06/05 07:02:37;;;;;;;6.18;1.75;;;20.60;66.20;;;;;;5046408;28;20203;-61
2023/06/05 07:05:04;;;;;;;4.25;1.83;;;20.60;66.00;;;;;;5040103;28;20216;-61
2023/06/05 07:07:32;;;;;;;2.58;1.90;;;20.60;66.00;;;;;;5042018;28;20196;-61
2023/06/05 07:09:59;;;;;;;6.65;2.05;;;20.60;66.00;;;;;;5041924;28;20571;-60
2023/06/05 07:12:25;;;;;;;2.92;1.70;;;20.70;66.20;;;;;;5042583;28;20679;-60
2023/06/05 07:14:54;;;;;;;2.63;2.05;;;20.70;66.40;;;;;;5043374;28;20202;-61
2023/06/05 07:17:21;;;;;;;6.68;1.58;;;20.60;66.30;;;;;;5050852;28;20294;-60
2023/06/05 07:19:47;;;;;;;4.80;1.63;;;20.60;66.40;;;;;;5037306;28;20487;-60
2023/06/05 07:22:15;;;;;;;2.90;1.55;;;20.70;66.40;;;;;;5052907;28;20192;-60
2023/06/05 07:24:43;;;;;;;5.70;2.00;;;20.70;66.60;;;;;;5047840;28;20219;-60
2023/06/05 07:27:10;;;;;;;4.32;1.85;;;20.70;66.50;;;;;;5041182;28;20245;-60
2023/06/05 07:29:37;;;;;;;2.20;2.00;;;20.70;66.60;;;;;;5037023;28;20607;-58
2023/06/05 07:32:06;;;;;;;1.90;1.70;;;20.70;66.50;;;;;;5047208;28;20703;-58
2023/06/05 07:34:33;;;;;;;1.83;1.40;;;20.70;66.50;;;;;;5047463;28;20203;-58
2023/06/05 07:37:01;;;;;;;3.72;2.60;;;20.70;66.50;;;;;;5044916;28;20741;-58
2023/06/05 07:39:28;;;;;;;3.42;2.03;;;20.70;66.50;;;;;;5043058;28;20195;-57
2023/06/05 07:41:56;;;;;;;6.13;2.13;;;20.70;66.50;;;;;;5046506;28;20226;-59
2023/06/05 07:44:23;;;;;;;3.65;1.75;;;20.70;66.40;;;;;;5041468;28;20629;-58
2023/06/05 07:46:50;;;;;;;2.78;2.30;;;20.70;66.40;;;;;;5044967;28;20204;-57
2023/06/05 07:49:17;;;;;;;4.25;2.10;;;20.70;66.50;;;;;;5040571;28;20285;-57
2023/06/05 07:51:46;;;;;;;6.57;1.85;;;20.70;66.50;;;;;;5047119;28;20202;-59
2023/06/05 07:54:15;;;;;;;5.30;2.10;;;20.70;66.50;;;;;;5039579;28;20658;-58
2023/06/05 07:56:42;;;;;;;2.63;1.77;;;20.70;66.40;;;;;;5044482;28;20187;-58
2023/06/05 07:59:14;;;;;;;3.17;1.90;;;20.70;66.50;;;;;;5040606;28;20195;-59
2023/06/05 08:01:40;;;;;;;3.05;1.27;;;20.70;66.60;;;;;;5046661;28;20618;-59
2023/06/05 08:04:09;;;;;;;5.57;1.65;;;20.70;66.60;;;;;;5038047;28;20219;-59
2023/06/05 08:06:37;;;;;;;3.15;1.70;;;20.70;66.60;;;;;;5044114;28;20286;-59
2023/06/05 08:09:04;;;;;;;3.25;1.88;;;20.70;66.60;;;;;;5046947;28;20196;-58
2023/06/05 08:11:31;;;;;;;2.03;1.55;;;20.70;66.60;;;;;;5047707;28;20199;-59
2023/06/05 08:13:58;;;;;;;2.20;1.70;;;20.70;66.60;;;;;;5039799;28;20215;-59
2023/06/05 08:16:26;;;;;;;2.80;1.70;;;20.70;66.70;;;;;;5041834;28;20195;-58
2023/06/05 08:18:52;;;;;;;3.45;2.00;;;20.70;66.70;;;;;;5043340;28;20199;-58
2023/06/05 08:21:20;;;;;;;2.45;1.40;;;20.80;67.00;;;;;;5041414;28;20249;-59
2023/06/05 08:23:46;;;;;;;2.88;1.63;;;20.70;66.80;;;;;;5044680;28;20212;-59
2023/06/05 08:26:13;;;;;;;2.13;1.83;;;20.80;66.90;;;;;;5040485;28;20199;-58
2023/06/05 08:28:40;;;;;;;10.52;1.77;;;20.80;66.90;;;;;;5035367;28;20195;-58
2023/06/05 08:31:07;;;;;;;3.80;1.48;;;20.80;66.90;;;;;;5034869;28;20215;-59
2023/06/05 08:33:36;;;;;;;3.13;1.70;;;20.80;67.00;;;;;;5031161;28;20625;-55
2023/06/05 08:36:03;;;;;;;2.13;1.75;;;20.80;67.00;;;;;;5037179;28;20198;-55
2023/06/05 08:38:30;;;;;;;3.20;1.80;;;20.80;66.80;;;;;;5033658;28;20977;-55
2023/06/05 08:41:01;;;;;;;2.25;2.05;;;20.80;66.90;;;;;;5036067;28;20200;-55
2023/06/05 08:43:28;;;;;;;3.13;1.60;;;20.80;67.00;;;;;;5038509;28;20188;-53
2023/06/05 08:45:56;;;;;;;2.63;1.88;;;20.80;67.20;;;;;;5036113;28;20223;-54
2023/06/05 08:48:24;;;;;;;3.35;1.88;;;20.80;67.30;;;;;;5040990;28;20219;-55
2023/06/05 08:50:54;;;;;;;2.60;1.60;;;20.80;67.20;;;;;;5042871;28;20187;-55
2023/06/05 08:53:24;;;;;;;3.25;1.90;;;20.80;67.30;;;;;;5040884;28;20199;-55
2023/06/05 08:55:55;;;;;;;4.80;2.40;;;20.80;67.50;;;;;;5047599;28;20709;-55
2023/06/05 08:58:22;;;;;;;1.70;1.60;;;20.80;67.60;;;;;;5042678;28;20223;-55
2023/06/05 09:00:50;;;;;;;3.05;1.63;;;20.80;67.70;;;;;;5039174;28;20635;-56
2023/06/05 09:03:19;;;;;;;3.28;1.85;;;20.80;67.90;;;;;;5034183;28;20191;-55
2023/06/05 09:05:46;;;;;;;4.15;2.15;;;20.80;67.90;;;;;;5038017;28;20575;-56
2023/06/05 09:08:15;;;;;;;10.57;3.47;;;20.80;67.80;;;;;;5037537;28;20195;-53
2023/06/05 09:10:41;;;;;;;8.27;2.65;;;20.80;68.00;;;;;;5035157;28;20203;-55
2023/06/05 09:13:09;;;;;;;4.35;2.35;;;20.80;68.20;;;;;;5037681;28;20559;-54
2023/06/05 09:15:36;;;;;;;3.80;2.20;;;20.80;68.90;;;;;;5044870;28;20231;-54
2023/06/05 09:18:05;;;;;;;4.30;2.15;;;20.80;67.90;;;;;;5029061;28;20716;-55
2023/06/05 09:20:34;;;;;;;4.88;2.65;;;20.80;67.80;;;;;;5037883;28;20191;-56
2023/06/05 09:23:01;;;;;;;4.35;1.85;;;20.90;68.00;;;;;;5042644;28;20203;-56
2023/06/05 09:25:47;;;;;;;4.45;2.45;;;20.90;67.80;;;;;;5046446;28;20287;-54
2023/06/05 09:28:14;;;;;;;5.13;2.25;;;20.90;67.90;;;;;;5036749;28;20271;-54
2023/06/05 09:30:55;;;;;;;3.25;1.80;;;20.80;67.90;;;;;;5047487;28;20191;-53
2023/06/05 09:33:23;;;;;;;3.40;2.30;;;20.80;67.90;;;;;;5048623;28;20650;-52
2023/06/05 09:36:03;;;;;;;4.40;2.40;;;20.80;67.90;;;;;;5043873;28;20227;-54
2023/06/05 09:38:30;;;;;;;4.20;1.90;;;20.90;68.10;;;;;;5042040;28;20195;-54
2023/06/05 09:41:06;;;;;;;5.05;2.30;;;20.80;67.80;;;;;;5038500;28;20249;-56
2023/06/05 09:43:33;;;;;;;8.00;2.65;;;20.80;67.80;;;;;;5036344;28;20203;-53
2023/06/05 09:46:06;;;;;;;3.10;1.85;;;20.90;67.80;;;;;;5045679;28;20707;-56
2023/06/05 09:48:33;;;;;;;5.72;2.45;;;20.90;67.90;;;;;;5042494;28;20273;-56
2023/06/05 09:51:09;;;;;;;3.25;2.58;;;20.90;67.90;;;;;;5037357;28;20726;-54
2023/06/05 09:53:38;;;;;;;3.25;2.00;;;20.90;68.10;;;;;;5043621;28;20192;-56
2023/06/05 09:56:07;;;;;;;5.97;2.60;;;20.90;67.80;;;;;;5043783;28;20199;-54
2023/06/05 09:58:34;;;;;;;2.45;2.05;;;20.90;67.80;;;;;;5046112;28;20192;-55
2023/06/05 10:01:03;;;;;;;6.38;3.10;;;20.90;68.00;;;;;;5047605;28;20677;-54
2023/06/05 10:03:30;;;;;;;2.55;2.22;;;20.90;68.10;;;;;;5044495;28;20216;-55
2023/06/05 10:05:57;;;;;;;3.17;2.25;;;20.90;67.90;;;;;;5046398;28;20223;-57
2023/06/05 10:08:24;;;;;;;2.97;2.15;;;20.90;67.90;;;;;;5044281;28;20222;-54
2023/06/05 10:10:51;;;;;;;3.72;2.28;;;20.90;68.20;;;;;;5048023;28;20202;-55
2023/06/05 10:13:20;;;;;;;8.18;2.70;;;20.90;68.00;;;;;;5043405;28;20263;-54
2023/06/05 10:15:47;;;;;;;2.75;2.15;;;20.90;68.10;;;;;;5034243;28;20212;-55
2023/06/05 10:18:14;;;;;;;8.10;3.30;;;20.90;68.20;;;;;;5039014;28;20200;-56
2023/06/05 10:20:41;;;;;;;3.88;2.50;;;20.90;68.10;;;;;;5044675;28;20196;-56
2023/06/05 10:23:08;;;;;;;3.03;2.28;;;20.90;68.10;;;;;;5046496;28;20666;-54
2023/06/05 10:25:36;;;;;;;3.22;2.50;;;20.90;68.20;;;;;;5045916;28;20223;-54
2023/06/05 10:28:30;;;;;;;3.05;2.30;;;20.90;68.10;;;;;;5043485;28;20203;-54
2023/06/05 10:31:28;;;;;;;3.38;2.88;;;20.90;68.30;;;;;;5051943;28;20286;-56
2023/06/05 10:34:19;;;;;;;3.63;2.10;;;20.90;68.30;;;;;;5044451;28;20199;-56
2023/06/05 10:37:10;;;;;;;3.28;2.63;;;20.90;68.30;;;;;;5040860;28;20656;-55
2023/06/05 10:39:37;;;;;;;3.65;2.30;;;20.90;68.30;;;;;;5037438;28;20283;-56
2023/06/05 10:42:04;;;;;;;3.38;2.00;;;20.90;68.20;;;;;;5036953;28;20206;-55
2023/06/05 10:44:42;;;;;;;4.68;2.60;;;20.90;68.10;;;;;;5041314;28;20242;-56
2023/06/05 10:47:46;;;;;;;4.18;3.33;;;20.90;68.20;;;;;;5043028;28;20206;-54
2023/06/05 10:50:27;;;;;;;5.00;2.47;;;20.90;68.20;;;;;;5048360;28;20191;-56
2023/06/05 10:52:56;;;;;;;3.30;2.58;;;20.90;68.20;;;;;;5035711;28;20199;-55
2023/06/05 10:55:24;;;;;;;4.18;2.65;;;20.90;68.20;;;;;;5047018;28;20243;-57
2023/06/05 10:58:04;;;;;;;3.67;2.28;;;20.90;68.30;;;;;;5037318;28;20224;-56
2023/06/05 11:00:32;;;;;;;2.50;2.30;;;20.90;68.40;;;;;;5045116;28;20281;-55
2023/06/05 11:03:00;;;;;;;3.88;2.40;;;20.90;68.30;;;;;;5053633;28;20191;-56
2023/06/05 11:05:27;;;;;;;4.00;2.65;;;20.90;68.40;;;;;;5038489;28;20576;-54
2023/06/05 11:08:13;;;;;;;7.82;2.47;;;20.90;68.30;;;;;;5038219;28;20199;-54
2023/06/05 11:11:03;;;;;;;5.40;2.45;;;20.90;68.50;;;;;;5039537;28;20199;-53
2023/06/05 11:13:55;;;;;;;2.58;2.15;;;20.90;68.60;;;;;;5041959;28;20199;-50
2023/06/05 11:16:36;;;;;;;7.32;2.90;;;20.90;68.70;;;;;;5046695;28;20739;-56
2023/06/05 11:19:37;;;;;;;2.90;2.47;;;20.90;68.50;;;;;;5038026;28;20203;-54
2023/06/05 11:22:08;;;;;;;4.03;2.35;;;20.90;68.60;;;;;;5043958;28;20246;-55
2023/06/05 11:24:36;;;;;;;4.15;2.90;;;20.90;68.80;;;;;;5042490;28;20275;-52
2023/06/05 11:27:04;;;;;;;4.07;3.17;;;20.90;68.70;;;;;;5039905;28;20222;-60
2023/06/05 11:29:33;;;;;;;4.10;2.67;;;21.00;68.90;;;;;;5032672;28;20663;-60
2023/06/05 11:32:11;;;;;;;3.20;2.47;;;20.90;68.80;;;;;;5042529;28;20195;-59
2023/06/05 11:34:37;;;;;;;2.88;2.30;;;21.00;68.50;;;;;;5033278;28;20655;-64
2023/06/05 11:37:17;;;;;;;4.78;2.30;;;20.90;69.00;;;;;;5043838;28;20203;-64
2023/06/05 11:39:44;;;;;;;6.40;2.90;;;21.00;69.00;;;;;;5026428;28;22901;-62
2023/06/05 11:42:11;;;;;;;4.80;2.33;;;21.00;69.10;;;;;;5036958;28;20196;-70
2023/06/05 11:44:37;;;;;;;2.90;2.28;;;21.00;69.20;;;;;;5036844;28;20999;-67
2023/06/05 11:47:06;;;;;;;7.60;3.03;;;21.00;69.20;;;;;;5041396;28;20220;-70
2023/06/05 11:49:33;;;;;;;6.07;2.80;;;21.00;69.40;;;;;;5029341;28;20199;-70
2023/06/05 11:52:00;;;;;;;8.45;2.88;;;21.00;69.30;;;;;;5036998;28;20191;-67
2023/06/05 11:54:30;;;;;;;13.95;2.80;;;21.00;69.30;;;;;;5047852;28;20191;-66
2023/06/05 11:56:59;;;;;;;3.25;2.58;;;21.00;69.30;;;;;;5039168;28;20195;-69
2023/06/05 11:59:25;;;;;;;3.72;2.55;;;21.00;69.30;;;;;;5036623;28;20191;-71
2023/06/05 12:01:54;;;;;;;8.52;2.67;;;21.00;69.40;;;;;;5034019;28;20533;-69
2023/06/05 12:04:22;;;;;;;4.03;2.53;;;21.00;69.40;;;;;;5040996;28;20203;-70
2023/06/05 12:06:51;;;;;;;2.95;2.03;;;21.00;69.50;;;;;;5045151;28;20220;-70
2023/06/05 12:09:18;;;;;;;7.82;2.40;;;21.00;69.50;;;;;;5042701;28;20307;-68
2023/06/05 12:11:45;;;;;;;6.53;2.38;;;21.00;69.60;;;;;;5043107;28;20655;-71
2023/06/05 12:14:13;;;;;;;3.42;2.65;;;21.00;69.60;;;;;;5040204;28;20188;-71
2023/06/05 12:16:43;;;;;;;5.82;4.45;;;21.00;69.70;;;;;;5043124;28;20214;-72
2023/06/05 12:19:14;;;;;;;3.42;2.60;;;21.00;69.70;;;;;;5044408;28;20211;-71
2023/06/05 12:21:43;;;;;;;4.13;2.75;;;21.00;69.80;;;;;;5040794;28;20199;-71
2023/06/05 12:24:09;;;;;;;7.10;3.05;;;21.00;69.80;;;;;;5034862;28;20220;-72
2023/06/05 12:26:53;;;;;;;6.47;3.40;;;21.00;70.00;;;;;;5037678;28;20277;-70
2023/06/05 12:29:21;;;;;;;6.75;2.85;;;21.00;70.00;;;;;;5036874;28;20196;-71
2023/06/05 12:31:48;;;;;;;6.38;3.33;;;21.00;70.10;;;;;;5037687;28;20241;-67
2023/06/05 12:34:16;;;;;;;10.57;3.05;;;21.00;70.20;;;;;;5039153;28;20195;-72
2023/06/05 12:36:47;;;;;;;4.50;3.33;;;21.00;70.30;;;;;;5039943;28;20286;-72
2023/06/05 12:39:15;;;;;;;4.60;3.33;;;21.00;70.50;;;;;;5041890;28;20266;-65
2023/06/05 12:41:44;;;;;;;5.78;3.35;;;21.00;70.50;;;;;;5040112;28;20191;-68
2023/06/05 12:44:10;;;;;;;4.90;3.25;;;21.00;70.60;;;;;;5042020;28;20203;-70
2023/06/05 12:46:38;;;;;;;11.13;4.40;;;21.00;70.60;;;;;;5036138;28;20293;-72
2023/06/05 12:49:06;;;;;;;9.75;5.25;;;21.00;70.70;;;;;;5041033;28;20666;-72
2023/06/05 12:51:33;;;;;;;10.43;6.07;;;21.00;70.70;;;;;;5042458;28;20199;-69
2023/06/05 12:54:01;;;;;;;15.25;7.40;;;21.10;70.90;;;;;;5044501;28;20196;-72